createdAt,value
2023-03-06T00:00:46.839Z,69.01
2023-03-06T00:03:14.304Z,69.91
2023-03-06T00:05:44.771Z,69.70
2023-03-06T00:08:12.403Z,68.46
2023-03-06T00:10:40.588Z,68.25
2023-03-06T00:13:12.510Z,71.33
2023-03-06T00:15:40.265Z,68.65
2023-03-06T00:18:08.598Z,67.65
2023-03-06T00:20:36.690Z,68.39
2023-03-06T00:23:04.190Z,70.62
2023-03-06T00:25:31.895Z,68.60
2023-03-06T00:27:59.215Z,67.25
2023-03-06T00:30:26.638Z,65.89
2023-03-06T00:32:54.584Z,72.10
2023-03-06T00:35:22.150Z,67.61
2023-03-06T00:37:49.668Z,67.06
2023-03-06T00:40:20.782Z,66.84
2023-03-06T00:42:48.195Z,68.86
2023-03-06T00:45:15.955Z,68.49
2023-03-06T00:47:43.701Z,67.66
2023-03-06T00:50:11.429Z,68.09
2023-03-06T00:52:39.250Z,68.60
2023-03-06T00:55:07.082Z,70.25
2023-03-06T00:57:34.472Z,68.11
2023-03-06T01:00:02.587Z,68.04
2023-03-06T01:02:30.142Z,70.52
2023-03-06T01:04:57.695Z,70.02
2023-03-06T01:07:25.207Z,69.00
2023-03-06T01:09:52.857Z,67.59
2023-03-06T01:12:23.152Z,67.68
2023-03-06T01:14:51.249Z,68.78
2023-03-06T01:17:18.769Z,68.16
2023-03-06T01:19:46.197Z,68.25
2023-03-06T01:22:13.574Z,67.74
2023-03-06T01:24:40.928Z,68.83
2023-03-06T01:27:08.285Z,68.63
2023-03-06T01:29:39.345Z,69.28
2023-03-06T01:32:07.468Z,68.22
2023-03-06T01:34:35.174Z,69.76
2023-03-06T01:37:02.641Z,69.35
2023-03-06T01:39:30.149Z,69.67
2023-03-06T01:41:57.656Z,69.09
2023-03-06T01:44:25.142Z,70.67
2023-03-06T01:46:52.669Z,71.22
2023-03-06T01:49:28.479Z,68.94
2023-03-06T01:52:09.022Z,69.60
2023-03-06T01:54:41.918Z,71.25
2023-03-06T01:57:38.496Z,70.28
2023-03-06T02:00:09.633Z,70.19
2023-03-06T02:02:43.578Z,74.04
2023-03-06T02:05:11.207Z,70.72
2023-03-06T02:07:41.352Z,69.52
2023-03-06T02:10:10.566Z,69.63
2023-03-06T02:12:42.356Z,70.49
2023-03-06T02:15:12.468Z,70.24
2023-03-06T02:17:43.095Z,70.43
2023-03-06T02:20:19.200Z,69.68
2023-03-06T02:22:58.199Z,71.67
2023-03-06T02:25:47.053Z,70.60
2023-03-06T02:28:20.818Z,69.68
2023-03-06T02:30:50.202Z,70.20
2023-03-06T02:33:20.361Z,71.50
2023-03-06T02:35:53.730Z,71.59
2023-03-06T02:38:24.941Z,71.99
2023-03-06T02:40:53.442Z,71.83
2023-03-06T02:43:31.605Z,79.81
2023-03-06T02:45:59.163Z,72.17
2023-03-06T02:48:26.694Z,72.07
2023-03-06T02:50:54.228Z,71.86
2023-03-06T02:53:21.645Z,73.09
2023-03-06T02:55:50.216Z,72.29
2023-03-06T02:58:17.925Z,72.16
2023-03-06T03:00:45.922Z,71.81
2023-03-06T03:03:14.772Z,73.70
2023-03-06T03:05:42.250Z,72.58
2023-03-06T03:08:09.814Z,72.01
2023-03-06T03:10:37.284Z,72.11
2023-03-06T03:13:04.665Z,75.61
2023-03-06T03:15:31.993Z,72.90
2023-03-06T03:17:59.307Z,71.28
2023-03-06T03:20:26.772Z,71.39
2023-03-06T03:22:55.464Z,72.27
2023-03-06T03:25:25.463Z,72.46
2023-03-06T03:27:53.137Z,72.27
2023-03-06T03:30:20.823Z,71.54
2023-03-06T03:32:48.146Z,72.58
2023-03-06T03:35:15.596Z,75.26
2023-03-06T03:37:42.997Z,73.12
2023-03-06T03:40:11.071Z,73.39
2023-03-06T03:42:39.033Z,73.29
2023-03-06T03:45:06.952Z,74.71
2023-03-06T03:47:34.706Z,73.33
2023-03-06T03:50:02.070Z,72.67
2023-03-06T03:52:29.530Z,73.03
2023-03-06T03:54:57.481Z,75.88
2023-03-06T03:57:25.377Z,73.00
2023-03-06T03:59:52.835Z,72.52
2023-03-06T04:02:20.609Z,72.96
2023-03-06T04:04:48.533Z,73.38
2023-03-06T04:07:16.929Z,73.32
2023-03-06T04:09:44.441Z,72.91
2023-03-06T04:12:11.908Z,73.33
2023-03-06T04:14:39.232Z,75.29
2023-03-06T04:17:06.740Z,73.14
2023-03-06T04:19:34.191Z,72.06
2023-03-06T04:22:01.617Z,71.46
2023-03-06T04:24:29.295Z,73.56
2023-03-06T04:26:56.650Z,82.41
2023-03-06T04:29:23.996Z,72.67
2023-03-06T04:31:51.609Z,63.26
2023-03-06T04:34:19.090Z,65.72
2023-03-06T04:36:46.460Z,67.82
2023-03-06T04:39:14.387Z,73.20
2023-03-06T04:41:42.454Z,69.50
2023-03-06T04:44:10.356Z,71.28
2023-03-06T04:46:37.784Z,72.32
2023-03-06T04:49:05.825Z,72.86
2023-03-06T04:51:33.403Z,72.50
2023-03-06T04:54:00.832Z,71.93
2023-03-06T04:56:28.998Z,61.87
2023-03-06T04:58:59.272Z,58.88
2023-03-06T05:01:27.307Z,64.28
2023-03-06T05:03:55.371Z,67.73
2023-03-06T05:06:23.223Z,68.24
2023-03-06T05:08:51.245Z,68.80
2023-03-06T05:11:19.403Z,70.72
2023-03-06T05:13:47.339Z,71.05
2023-03-06T05:16:15.467Z,73.85
2023-03-06T05:18:43.554Z,71.52
2023-03-06T05:21:11.706Z,71.23
2023-03-06T05:23:39.512Z,71.02
2023-03-06T05:26:13.041Z,71.26
2023-03-06T05:28:40.954Z,70.40
2023-03-06T05:31:09.210Z,69.97
2023-03-06T05:33:37.064Z,71.26
2023-03-06T05:36:04.994Z,71.44
2023-03-06T05:38:32.482Z,69.34
2023-03-06T05:41:00.282Z,68.79
2023-03-06T05:43:28.896Z,67.62
2023-03-06T05:46:07.510Z,67.70
2023-03-06T05:48:35.710Z,71.30
2023-03-06T05:51:05.822Z,68.29
2023-03-06T05:53:33.681Z,68.99
2023-03-06T05:56:04.220Z,70.44
2023-03-06T05:58:33.575Z,68.90
2023-03-06T06:01:07.833Z,68.29
2023-03-06T06:03:35.731Z,69.28
2023-03-06T06:06:08.657Z,69.44
2023-03-06T06:08:36.768Z,70.66
2023-03-06T06:11:05.629Z,70.28
2023-03-06T06:13:33.564Z,69.90
2023-03-06T06:16:07.309Z,68.17
2023-03-06T06:18:36.099Z,69.27
2023-03-06T06:21:09.210Z,69.63
2023-03-06T06:23:36.944Z,69.95
2023-03-06T06:26:07.266Z,68.99
2023-03-06T06:28:35.661Z,67.98
2023-03-06T06:31:11.724Z,67.42
2023-03-06T06:33:40.557Z,67.67
2023-03-06T06:36:16.452Z,67.50
2023-03-06T06:38:43.927Z,62.94
2023-03-06T06:41:46.305Z,59.92
2023-03-06T06:44:02.676Z,55.05
2023-03-06T06:47:18.275Z,56.24
2023-03-06T06:49:18.279Z,50.14
2023-03-06T06:51:45.658Z,48.38
2023-03-06T06:54:13.208Z,48.52
2023-03-06T06:56:40.667Z,51.72
2023-03-06T06:59:16.741Z,52.38
2023-03-06T07:01:45.380Z,53.20
2023-03-06T07:04:13.833Z,51.26
2023-03-06T07:06:42.891Z,51.06
2023-03-06T07:09:11.081Z,48.37
2023-03-06T07:11:39.426Z,46.79
2023-03-06T07:14:07.124Z,45.06
2023-03-06T07:16:34.566Z,42.85
2023-03-06T07:19:03.053Z,42.47
2023-03-06T07:21:30.487Z,43.43
2023-03-06T07:23:59.035Z,42.09
2023-03-06T07:26:28.082Z,42.56
2023-03-06T07:28:56.675Z,43.52
2023-03-06T07:31:26.966Z,41.56
2023-03-06T07:33:54.985Z,42.25
2023-03-06T07:36:24.039Z,45.08
2023-03-06T07:38:51.457Z,43.87
2023-03-06T07:41:19.802Z,43.47
2023-03-06T07:43:50.302Z,42.43
2023-03-06T07:46:18.185Z,43.57
2023-03-06T07:48:45.652Z,45.37
2023-03-06T07:51:21.812Z,44.81
2023-03-06T07:53:49.741Z,44.83
2023-03-06T07:56:17.621Z,44.77
2023-03-06T07:58:47.329Z,42.81
2023-03-06T08:01:17.083Z,43.10
2023-03-06T08:03:44.440Z,44.05
2023-03-06T08:06:14.760Z,48.26
2023-03-06T08:08:43.850Z,43.16
2023-03-06T08:11:14.380Z,45.12
2023-03-06T08:13:42.138Z,44.62
2023-03-06T08:16:10.853Z,43.77
2023-03-06T08:18:38.478Z,44.69
2023-03-06T08:21:11.472Z,42.96
2023-03-06T08:23:40.192Z,42.99
2023-03-06T08:26:13.506Z,42.57
2023-03-06T08:28:41.499Z,42.91
2023-03-06T08:31:20.930Z,42.25
2023-03-06T08:33:48.284Z,42.74
2023-03-06T08:36:15.646Z,43.82
2023-03-06T08:38:43.322Z,41.36
2023-03-06T08:41:10.911Z,42.86
2023-03-06T08:43:38.423Z,41.48
2023-03-06T08:46:05.949Z,41.04
2023-03-06T08:48:33.468Z,38.97
2023-03-06T08:51:02.725Z,38.31
2023-03-06T08:53:42.071Z,37.77
2023-03-06T08:56:31.166Z,39.35
2023-03-06T08:59:00.256Z,38.63
2023-03-06T09:01:30.604Z,37.63
2023-03-06T09:04:00.644Z,36.75
2023-03-06T09:06:31.492Z,37.87
2023-03-06T09:09:00.655Z,38.05
2023-03-06T09:11:28.610Z,37.86
2023-03-06T09:13:56.471Z,36.65
2023-03-06T09:16:24.622Z,34.42
2023-03-06T09:18:52.296Z,36.33
2023-03-06T09:21:24.595Z,36.71
2023-03-06T09:23:52.213Z,36.85
2023-03-06T09:26:20.102Z,37.19
2023-03-06T09:28:47.727Z,34.42
2023-03-06T09:31:18.313Z,35.77
2023-03-06T09:33:46.378Z,34.07
2023-03-06T09:36:19.956Z,34.54
2023-03-06T09:38:48.704Z,34.20
2023-03-06T09:41:31.790Z,34.74
2023-03-06T09:44:14.979Z,34.08
2023-03-06T09:46:47.095Z,33.78
2023-03-06T09:49:46.624Z,36.53
2023-03-06T09:52:30.005Z,34.57
2023-03-06T09:55:18.442Z,33.48
2023-03-06T09:57:59.034Z,34.01
2023-03-06T10:00:43.671Z,34.34
2023-03-06T10:03:25.694Z,32.51
2023-03-06T10:06:09.664Z,32.23
2023-03-06T10:08:48.760Z,34.89
2023-03-06T10:11:23.665Z,34.28
2023-03-06T10:13:59.007Z,34.02
2023-03-06T10:16:29.274Z,41.24
2023-03-06T10:19:01.992Z,35.42
2023-03-06T10:21:39.950Z,34.95
2023-03-06T10:24:32.455Z,32.55
2023-03-06T10:27:40.505Z,33.33
2023-03-06T10:30:24.118Z,34.21
2023-03-06T10:32:59.053Z,33.51
2023-03-06T10:35:46.186Z,32.24
2023-03-06T10:38:32.868Z,35.48
2023-03-06T10:41:06.668Z,33.83
2023-03-06T10:43:42.528Z,33.91
2023-03-06T10:46:12.829Z,35.51
2023-03-06T10:48:42.701Z,33.02
2023-03-06T10:51:21.164Z,34.06
2023-03-06T10:54:00.661Z,31.78
2023-03-06T10:56:32.995Z,32.66
2023-03-06T10:59:13.126Z,32.74
2023-03-06T11:01:42.807Z,33.05
2023-03-06T11:04:35.410Z,33.62
2023-03-06T11:07:18.160Z,34.07
2023-03-06T11:09:57.726Z,34.24
2023-03-06T11:12:27.796Z,33.35
2023-03-06T11:15:07.144Z,33.12
2023-03-06T11:17:38.140Z,37.05
2023-03-06T11:20:14.774Z,33.59
2023-03-06T11:22:47.567Z,32.82
2023-03-06T11:25:18.847Z,32.46
2023-03-06T11:27:55.987Z,35.52
2023-03-06T11:30:35.033Z,32.87
2023-03-06T11:33:12.228Z,32.57
2023-03-06T11:35:51.145Z,33.89
2023-03-06T11:38:30.704Z,34.74
2023-03-06T11:41:02.186Z,33.38
2023-03-06T11:43:51.015Z,34.39
2023-03-06T11:46:38.620Z,38.65
2023-03-06T11:49:32.140Z,36.29
2023-03-06T11:52:05.134Z,35.15
2023-03-06T11:54:33.701Z,34.46
2023-03-06T11:57:20.034Z,38.60
2023-03-06T11:59:56.886Z,34.94
2023-03-06T12:02:49.549Z,33.54
2023-03-06T12:05:42.477Z,35.32
2023-03-06T12:08:09.787Z,41.07
2023-03-06T12:11:11.036Z,34.92
2023-03-06T12:13:48.981Z,34.92
2023-03-06T12:16:31.997Z,34.32
2023-03-06T12:19:14.284Z,34.56
2023-03-06T12:22:09.140Z,33.66
2023-03-06T12:24:55.701Z,35.02
2023-03-06T12:27:34.395Z,35.33
2023-03-06T12:30:30.096Z,34.79
2023-03-06T12:33:28.692Z,35.14
2023-03-06T12:36:30.348Z,37.11
2023-03-06T12:39:13.653Z,37.97
2023-03-06T12:41:44.149Z,37.12
2023-03-06T12:44:37.867Z,36.67
2023-03-06T12:47:10.050Z,40.70
2023-03-06T12:49:42.370Z,38.03
2023-03-06T12:52:30.293Z,35.59
2023-03-06T12:55:07.581Z,36.27
2023-03-06T12:57:35.171Z,36.97
2023-03-06T13:00:03.549Z,35.26
2023-03-06T13:03:04.824Z,34.57
2023-03-06T13:05:47.411Z,35.59
2023-03-06T13:08:52.374Z,45.01
2023-03-06T13:11:46.259Z,33.40
2023-03-06T13:14:29.085Z,34.01
2023-03-06T13:17:35.773Z,35.50
2023-03-06T13:20:15.438Z,35.02
2023-03-06T13:22:45.002Z,35.37
2023-03-06T13:25:18.403Z,34.95
2023-03-06T13:27:53.304Z,39.71
2023-03-06T13:30:39.516Z,35.48
2023-03-06T13:33:28.975Z,34.92
2023-03-06T13:35:58.287Z,35.02
2023-03-06T13:38:33.588Z,34.32
2023-03-06T13:41:23.237Z,34.39
2023-03-06T13:43:54.816Z,33.13
2023-03-06T13:46:27.023Z,34.13
2023-03-06T13:49:09.745Z,33.97
2023-03-06T13:51:39.699Z,33.66
2023-03-06T13:54:16.235Z,34.93
2023-03-06T13:56:55.455Z,38.02
2023-03-06T13:59:50.514Z,34.94
2023-03-06T14:02:22.852Z,35.22
2023-03-06T14:04:56.516Z,35.71
2023-03-06T14:07:32.082Z,36.66
2023-03-06T14:10:13.597Z,37.08
2023-03-06T14:12:55.005Z,36.89
2023-03-06T14:15:26.328Z,36.14
2023-03-06T14:18:00.250Z,38.87
2023-03-06T14:20:40.314Z,35.81
2023-03-06T14:23:29.095Z,35.96
2023-03-06T14:26:03.361Z,36.67
2023-03-06T14:28:32.970Z,35.17
2023-03-06T14:31:04.215Z,36.61
2023-03-06T14:33:53.830Z,35.23
2023-03-06T14:36:25.092Z,36.46
2023-03-06T14:39:01.469Z,36.52
2023-03-06T14:41:35.236Z,36.45
2023-03-06T14:44:23.998Z,36.77
2023-03-06T14:46:54.367Z,35.79
2023-03-06T14:49:24.300Z,36.83
2023-03-06T14:51:55.053Z,37.13
2023-03-06T14:54:29.901Z,36.84
2023-03-06T14:57:05.540Z,38.07
2023-03-06T14:59:44.664Z,38.56
2023-03-06T15:02:19.458Z,38.12
2023-03-06T15:05:05.773Z,37.56
2023-03-06T15:07:33.979Z,38.69
2023-03-06T15:10:01.332Z,38.16
2023-03-06T15:12:29.438Z,38.79
2023-03-06T15:15:01.109Z,37.18
2023-03-06T15:17:38.488Z,38.76
2023-03-06T15:20:07.064Z,38.15
2023-03-06T15:22:37.456Z,37.64
2023-03-06T15:25:28.811Z,37.71
2023-03-06T15:27:58.932Z,37.78
2023-03-06T15:30:30.377Z,38.70
2023-03-06T15:33:16.292Z,39.49
2023-03-06T15:36:04.026Z,38.57
2023-03-06T15:38:37.335Z,38.99
2023-03-06T15:41:07.341Z,38.71
2023-03-06T15:43:38.805Z,37.77
2023-03-06T15:46:07.466Z,38.85
2023-03-06T15:48:34.832Z,38.86
2023-03-06T15:51:04.068Z,39.73
2023-03-06T15:53:31.314Z,40.05
2023-03-06T15:55:59.365Z,39.20
2023-03-06T15:58:30.872Z,39.85
2023-03-06T16:00:58.237Z,39.70
2023-03-06T16:03:25.528Z,39.97
2023-03-06T16:05:52.817Z,40.46
2023-03-06T16:08:20.061Z,40.18
2023-03-06T16:10:48.268Z,40.64
2023-03-06T16:13:27.129Z,40.35
2023-03-06T16:15:54.883Z,40.45
2023-03-06T16:18:22.129Z,40.33
2023-03-06T16:20:49.575Z,40.73
2023-03-06T16:23:16.931Z,40.74
2023-03-06T16:25:48.809Z,40.60
2023-03-06T16:28:16.242Z,40.41
2023-03-06T16:30:44.995Z,40.64
2023-03-06T16:33:13.340Z,42.84
2023-03-06T16:35:41.448Z,42.47
2023-03-06T16:38:09.895Z,42.43
2023-03-06T16:40:38.474Z,42.30
2023-03-06T16:43:06.075Z,42.69
2023-03-06T16:45:37.606Z,42.48
2023-03-06T16:48:05.825Z,45.23
2023-03-06T16:50:38.575Z,42.96
2023-03-06T16:53:07.104Z,42.56
2023-03-06T16:55:34.630Z,42.71
2023-03-06T16:58:04.537Z,43.65
2023-03-06T17:00:31.790Z,44.42
2023-03-06T17:02:59.896Z,45.12
2023-03-06T17:05:27.968Z,44.69
2023-03-06T17:07:55.944Z,44.34
2023-03-06T17:10:23.202Z,46.41
2023-03-06T17:12:50.549Z,47.02
2023-03-06T17:15:17.874Z,46.62
2023-03-06T17:17:45.140Z,46.48
2023-03-06T17:20:13.161Z,48.02
2023-03-06T17:22:41.093Z,45.82
2023-03-06T17:25:09.036Z,44.93
2023-03-06T17:27:37.669Z,48.07
2023-03-06T17:30:06.690Z,46.87
2023-03-06T17:32:35.047Z,46.34
2023-03-06T17:35:03.142Z,48.03
2023-03-06T17:37:31.984Z,46.13
2023-03-06T17:39:59.513Z,43.79
2023-03-06T17:42:27.259Z,44.32
2023-03-06T17:44:54.448Z,44.97
2023-03-06T17:47:22.730Z,45.35
2023-03-06T17:49:49.981Z,46.35
2023-03-06T17:52:17.282Z,46.48
2023-03-06T17:54:44.541Z,46.50
2023-03-06T17:57:11.824Z,46.46
2023-03-06T17:59:39.082Z,47.88
2023-03-06T18:02:06.703Z,47.04
2023-03-06T18:04:34.036Z,46.62
2023-03-06T18:07:01.316Z,47.05
2023-03-06T18:09:28.577Z,50.48
2023-03-06T18:11:55.973Z,47.34
2023-03-06T18:14:23.200Z,47.49
2023-03-06T18:16:50.523Z,48.15
2023-03-06T18:19:17.883Z,47.54
2023-03-06T18:21:45.385Z,47.67
2023-03-06T18:24:12.821Z,48.19
2023-03-06T18:26:41.356Z,47.90
2023-03-06T18:29:08.684Z,48.97
2023-03-06T18:31:40.953Z,49.11
2023-03-06T18:34:11.807Z,50.10
2023-03-06T18:36:40.105Z,50.80
2023-03-06T18:39:09.001Z,52.91
2023-03-06T18:41:37.079Z,51.50
2023-03-06T18:44:04.708Z,51.94
2023-03-06T18:46:37.807Z,52.31
2023-03-06T18:49:05.612Z,52.97
2023-03-06T18:51:34.779Z,52.60
2023-03-06T18:54:04.276Z,53.05
2023-03-06T18:56:35.019Z,53.85
2023-03-06T18:59:06.987Z,53.36
2023-03-06T19:01:37.901Z,52.99
2023-03-06T19:04:05.297Z,52.87
2023-03-06T19:06:32.883Z,53.55
2023-03-06T19:09:00.493Z,63.27
2023-03-06T19:11:30.267Z,54.24
2023-03-06T19:13:59.098Z,54.42
2023-03-06T19:16:28.893Z,54.68
2023-03-06T19:18:57.589Z,59.35
2023-03-06T19:21:27.607Z,55.26
2023-03-06T19:23:55.755Z,55.00
2023-03-06T19:26:26.110Z,54.88
2023-03-06T19:28:53.511Z,55.20
2023-03-06T19:31:28.271Z,54.74
2023-03-06T19:33:56.953Z,54.50
2023-03-06T19:36:30.771Z,56.48
2023-03-06T19:39:05.122Z,55.30
2023-03-06T19:41:34.031Z,53.96
2023-03-06T19:44:01.953Z,53.15
2023-03-06T19:46:30.382Z,53.17
2023-03-06T19:49:00.037Z,54.91
2023-03-06T19:51:27.411Z,52.81
2023-03-06T19:53:56.911Z,52.67
2023-03-06T19:56:29.341Z,52.28
2023-03-06T19:59:03.824Z,54.52
2023-03-06T20:01:31.169Z,52.80
2023-03-06T20:03:59.834Z,53.14
2023-03-06T20:06:32.022Z,53.32
2023-03-06T20:09:01.841Z,53.74
2023-03-06T20:11:30.714Z,54.35
2023-03-06T20:14:00.643Z,55.99
2023-03-06T20:16:29.875Z,55.15
2023-03-06T20:18:58.607Z,55.06
2023-03-06T20:21:28.426Z,54.95
2023-03-06T20:23:56.744Z,55.05
2023-03-06T20:26:26.102Z,54.24
2023-03-06T20:28:57.566Z,55.00
2023-03-06T20:31:28.253Z,53.67
2023-03-06T20:33:58.772Z,54.28
2023-03-06T20:36:29.824Z,56.33
2023-03-06T20:39:00.258Z,60.02
2023-03-06T20:41:30.602Z,62.60
2023-03-06T20:43:59.794Z,65.05
2023-03-06T20:46:27.293Z,65.41
2023-03-06T20:48:54.822Z,68.82
2023-03-06T20:51:25.615Z,71.31
2023-03-06T20:53:54.443Z,68.85
2023-03-06T20:56:24.167Z,65.75
2023-03-06T20:58:52.004Z,66.12
2023-03-06T21:01:23.132Z,65.41
2023-03-06T21:03:51.507Z,64.36
2023-03-06T21:06:19.721Z,65.05
2023-03-06T21:08:47.572Z,69.76
2023-03-06T21:11:15.983Z,69.03
2023-03-06T21:13:43.428Z,68.92
2023-03-06T21:16:16.543Z,68.26
2023-03-06T21:18:47.568Z,69.55
2023-03-06T21:21:20.719Z,70.13
2023-03-06T21:23:48.581Z,69.59
2023-03-06T21:26:19.962Z,68.49
2023-03-06T21:28:48.138Z,68.43
2023-03-06T21:31:17.596Z,68.63
2023-03-06T21:33:45.340Z,68.97
2023-03-06T21:36:13.494Z,69.38
2023-03-06T21:38:40.804Z,68.47
2023-03-06T21:41:12.967Z,69.62
2023-03-06T21:43:43.581Z,67.73
2023-03-06T21:46:11.674Z,65.53
2023-03-06T21:48:39.303Z,65.93
2023-03-06T21:51:12.388Z,64.87
2023-03-06T21:53:42.153Z,62.65
2023-03-06T21:56:11.377Z,62.69
2023-03-06T21:58:41.139Z,61.71
2023-03-06T22:01:10.893Z,61.32
2023-03-06T22:03:38.475Z,60.14
2023-03-06T22:06:20.984Z,60.10
2023-03-06T22:08:48.321Z,61.81
2023-03-06T22:11:17.804Z,61.32
2023-03-06T22:13:46.022Z,60.90
2023-03-06T22:16:14.315Z,60.60
2023-03-06T22:18:46.397Z,63.03
2023-03-06T22:21:16.124Z,60.73
2023-03-06T22:23:45.662Z,60.46
2023-03-06T22:26:13.742Z,61.09
2023-03-06T22:28:42.142Z,64.24
2023-03-06T22:31:18.490Z,61.94
2023-03-06T22:33:46.545Z,61.69
2023-03-06T22:36:15.548Z,61.70
2023-03-06T22:38:44.865Z,62.50
2023-03-06T22:41:14.539Z,61.26
2023-03-06T22:43:41.773Z,60.49
2023-03-06T22:46:11.909Z,61.29
2023-03-06T22:48:39.821Z,64.80
2023-03-06T22:51:10.110Z,61.69
2023-03-06T22:53:38.515Z,60.99
2023-03-06T22:56:10.299Z,60.83
2023-03-06T22:58:38.019Z,61.36
2023-03-06T23:01:11.054Z,61.08
2023-03-06T23:03:40.582Z,60.25
2023-03-06T23:06:20.602Z,60.67
2023-03-06T23:08:53.965Z,63.70
2023-03-06T23:11:21.774Z,61.19
2023-03-06T23:13:49.891Z,61.63
2023-03-06T23:16:18.163Z,60.88
2023-03-06T23:18:45.551Z,65.79
2023-03-06T23:21:15.115Z,61.43
2023-03-06T23:23:42.838Z,61.51
2023-03-06T23:26:13.111Z,61.58
2023-03-06T23:28:41.291Z,65.36
2023-03-06T23:31:10.211Z,61.67
2023-03-06T23:33:38.009Z,61.52
2023-03-06T23:36:08.061Z,61.16
2023-03-06T23:38:35.933Z,64.31
2023-03-06T23:41:08.649Z,61.78
2023-03-06T23:43:36.197Z,61.39
2023-03-06T23:46:04.720Z,60.89
2023-03-06T23:48:31.932Z,62.79
2023-03-06T23:50:59.781Z,61.73
2023-03-06T23:53:27.066Z,61.79
2023-03-06T23:55:54.389Z,62.35
2023-03-06T23:58:21.649Z,62.62
